sensor_id;sensor_type;location;lat;lon;timestamp;P1;durP1;ratioP1;P2;durP2;ratioP2
8480;SDS011;4277;51.354;6.740;2023-03-03T00:00:57;56.00;;;29.17;;
8480;SDS011;4277;51.354;6.740;2023-03-03T00:03:24;51.60;;;27.80;;
8480;SDS011;4277;51.354;6.740;2023-03-03T00:05:51;50.43;;;27.43;;
8480;SDS011;4277;51.354;6.740;2023-03-03T00:08:17;54.47;;;27.77;;
8480;SDS011;4277;51.354;6.740;2023-03-03T00:10:44;49.40;;;26.63;;
8480;SDS011;4277;51.354;6.740;2023-03-03T00:13:17;52.57;;;27.50;;
8480;SDS011;4277;51.354;6.740;2023-03-03T00:15:43;50.07;;;26.60;;
8480;SDS011;4277;51.354;6.740;2023-03-03T00:20:58;48.97;;;25.20;;
8480;SDS011;4277;51.354;6.740;2023-03-03T00:23:33;53.83;;;27.73;;
8480;SDS011;4277;51.354;6.740;2023-03-03T00:26:00;53.07;;;28.07;;
8480;SDS011;4277;51.354;6.740;2023-03-03T00:30:52;57.83;;;28.30;;
8480;SDS011;4277;51.354;6.740;2023-03-03T00:35:56;55.33;;;28.70;;
8480;SDS011;4277;51.354;6.740;2023-03-03T00:38:22;55.90;;;28.77;;
8480;SDS011;4277;51.354;6.740;2023-03-03T00:40:48;53.97;;;28.97;;
8480;SDS011;4277;51.354;6.740;2023-03-03T00:43:22;57.80;;;29.53;;
8480;SDS011;4277;51.354;6.740;2023-03-03T00:45:49;62.77;;;31.17;;
8480;SDS011;4277;51.354;6.740;2023-03-03T00:50:52;53.53;;;28.17;;
8480;SDS011;4277;51.354;6.740;2023-03-03T00:53:18;58.50;;;30.03;;
8480;SDS011;4277;51.354;6.740;2023-03-03T00:55:45;50.20;;;27.73;;
8480;SDS011;4277;51.354;6.740;2023-03-03T00:58:11;59.60;;;30.27;;
8480;SDS011;4277;51.354;6.740;2023-03-03T01:00:37;56.53;;;29.10;;
8480;SDS011;4277;51.354;6.740;2023-03-03T01:03:05;51.07;;;27.33;;
8480;SDS011;4277;51.354;6.740;2023-03-03T01:05:31;54.60;;;28.63;;
8480;SDS011;4277;51.354;6.740;2023-03-03T01:07:57;53.00;;;27.80;;
8480;SDS011;4277;51.354;6.740;2023-03-03T01:10:23;52.20;;;28.90;;
8480;SDS011;4277;51.354;6.740;2023-03-03T01:12:50;53.10;;;29.33;;
8480;SDS011;4277;51.354;6.740;2023-03-03T01:15:16;50.17;;;27.07;;
8480;SDS011;4277;51.354;6.740;2023-03-03T01:17:42;53.87;;;29.00;;
8480;SDS011;4277;51.354;6.740;2023-03-03T01:20:09;52.00;;;28.40;;
8480;SDS011;4277;51.354;6.740;2023-03-03T01:22:35;54.10;;;30.03;;
8480;SDS011;4277;51.354;6.740;2023-03-03T01:25:01;51.90;;;28.97;;
8480;SDS011;4277;51.354;6.740;2023-03-03T01:27:28;52.47;;;29.03;;
8480;SDS011;4277;51.354;6.740;2023-03-03T01:29:54;53.37;;;29.40;;
8480;SDS011;4277;51.354;6.740;2023-03-03T01:32:23;52.13;;;27.67;;
8480;SDS011;4277;51.354;6.740;2023-03-03T01:34:49;53.30;;;29.17;;
8480;SDS011;4277;51.354;6.740;2023-03-03T01:37:15;54.83;;;29.23;;
8480;SDS011;4277;51.354;6.740;2023-03-03T01:39:41;54.03;;;29.80;;
8480;SDS011;4277;51.354;6.740;2023-03-03T01:42:07;51.07;;;28.60;;
8480;SDS011;4277;51.354;6.740;2023-03-03T01:44:33;60.37;;;32.30;;
8480;SDS011;4277;51.354;6.740;2023-03-03T01:47:02;58.23;;;31.83;;
8480;SDS011;4277;51.354;6.740;2023-03-03T01:49:38;58.67;;;31.90;;
8480;SDS011;4277;51.354;6.740;2023-03-03T01:52:13;56.87;;;30.83;;
8480;SDS011;4277;51.354;6.740;2023-03-03T01:54:43;59.03;;;32.40;;
8480;SDS011;4277;51.354;6.740;2023-03-03T01:57:12;54.30;;;30.53;;
8480;SDS011;4277;51.354;6.740;2023-03-03T01:59:41;55.67;;;30.33;;
8480;SDS011;4277;51.354;6.740;2023-03-03T02:02:09;54.67;;;30.30;;
8480;SDS011;4277;51.354;6.740;2023-03-03T02:04:35;57.17;;;30.77;;
8480;SDS011;4277;51.354;6.740;2023-03-03T02:07:04;56.17;;;31.23;;
8480;SDS011;4277;51.354;6.740;2023-03-03T02:12:17;49.37;;;27.53;;
8480;SDS011;4277;51.354;6.740;2023-03-03T02:14:45;54.93;;;29.40;;
8480;SDS011;4277;51.354;6.740;2023-03-03T02:17:10;51.63;;;28.97;;
8480;SDS011;4277;51.354;6.740;2023-03-03T02:22:05;57.43;;;31.03;;
8480;SDS011;4277;51.354;6.740;2023-03-03T02:24:34;52.07;;;28.63;;
8480;SDS011;4277;51.354;6.740;2023-03-03T02:27:04;48.43;;;27.40;;
8480;SDS011;4277;51.354;6.740;2023-03-03T02:29:30;52.67;;;28.40;;
8480;SDS011;4277;51.354;6.740;2023-03-03T02:31:56;55.23;;;28.13;;
8480;SDS011;4277;51.354;6.740;2023-03-03T02:34:23;47.73;;;27.27;;
8480;SDS011;4277;51.354;6.740;2023-03-03T02:36:49;53.03;;;28.93;;
8480;SDS011;4277;51.354;6.740;2023-03-03T02:39:17;52.27;;;28.83;;
8480;SDS011;4277;51.354;6.740;2023-03-03T02:42:01;53.23;;;29.33;;
8480;SDS011;4277;51.354;6.740;2023-03-03T02:44:29;51.07;;;26.90;;
8480;SDS011;4277;51.354;6.740;2023-03-03T02:46:56;52.33;;;28.80;;
8480;SDS011;4277;51.354;6.740;2023-03-03T02:49:24;49.63;;;28.87;;
8480;SDS011;4277;51.354;6.740;2023-03-03T02:51:50;51.70;;;29.03;;
8480;SDS011;4277;51.354;6.740;2023-03-03T02:54:17;52.57;;;28.63;;
8480;SDS011;4277;51.354;6.740;2023-03-03T02:56:44;52.20;;;29.03;;
8480;SDS011;4277;51.354;6.740;2023-03-03T02:59:10;49.33;;;27.50;;
8480;SDS011;4277;51.354;6.740;2023-03-03T03:01:37;48.37;;;27.80;;
8480;SDS011;4277;51.354;6.740;2023-03-03T03:04:04;51.17;;;27.77;;
8480;SDS011;4277;51.354;6.740;2023-03-03T03:06:31;50.13;;;28.57;;
8480;SDS011;4277;51.354;6.740;2023-03-03T03:08:57;46.10;;;27.47;;
8480;SDS011;4277;51.354;6.740;2023-03-03T03:11:24;51.60;;;28.33;;
8480;SDS011;4277;51.354;6.740;2023-03-03T03:13:50;44.93;;;25.40;;
8480;SDS011;4277;51.354;6.740;2023-03-03T03:16:16;50.30;;;28.10;;
8480;SDS011;4277;51.354;6.740;2023-03-03T03:18:42;48.83;;;28.57;;
8480;SDS011;4277;51.354;6.740;2023-03-03T03:21:09;47.63;;;28.13;;
8480;SDS011;4277;51.354;6.740;2023-03-03T03:23:35;47.80;;;27.60;;
8480;SDS011;4277;51.354;6.740;2023-03-03T03:26:02;49.63;;;28.60;;
8480;SDS011;4277;51.354;6.740;2023-03-03T03:28:28;51.43;;;29.20;;
8480;SDS011;4277;51.354;6.740;2023-03-03T03:30:54;53.23;;;28.93;;
8480;SDS011;4277;51.354;6.740;2023-03-03T03:33:21;50.00;;;27.57;;
8480;SDS011;4277;51.354;6.740;2023-03-03T03:35:47;53.17;;;29.97;;
8480;SDS011;4277;51.354;6.740;2023-03-03T03:38:13;53.17;;;29.13;;
8480;SDS011;4277;51.354;6.740;2023-03-03T03:40:39;56.27;;;30.37;;
8480;SDS011;4277;51.354;6.740;2023-03-03T03:43:05;59.03;;;31.27;;
8480;SDS011;4277;51.354;6.740;2023-03-03T03:45:31;58.90;;;31.57;;
8480;SDS011;4277;51.354;6.740;2023-03-03T03:47:58;62.30;;;32.17;;
8480;SDS011;4277;51.354;6.740;2023-03-03T03:50:24;57.33;;;30.53;;
8480;SDS011;4277;51.354;6.740;2023-03-03T03:52:50;55.23;;;29.83;;
8480;SDS011;4277;51.354;6.740;2023-03-03T03:55:16;61.33;;;31.30;;
8480;SDS011;4277;51.354;6.740;2023-03-03T03:57:42;54.07;;;29.37;;
8480;SDS011;4277;51.354;6.740;2023-03-03T04:00:09;58.17;;;30.80;;
8480;SDS011;4277;51.354;6.740;2023-03-03T04:02:35;58.33;;;31.47;;
8480;SDS011;4277;51.354;6.740;2023-03-03T04:05:01;61.83;;;32.10;;
8480;SDS011;4277;51.354;6.740;2023-03-03T04:07:27;54.63;;;29.90;;
8480;SDS011;4277;51.354;6.740;2023-03-03T04:09:53;53.93;;;29.07;;
8480;SDS011;4277;51.354;6.740;2023-03-03T04:12:20;57.07;;;31.57;;
8480;SDS011;4277;51.354;6.740;2023-03-03T04:14:45;57.90;;;29.83;;
8480;SDS011;4277;51.354;6.740;2023-03-03T04:17:15;55.40;;;29.87;;
8480;SDS011;4277;51.354;6.740;2023-03-03T04:19:41;59.40;;;30.43;;
8480;SDS011;4277;51.354;6.740;2023-03-03T04:22:07;60.33;;;30.97;;
8480;SDS011;4277;51.354;6.740;2023-03-03T04:24:33;64.87;;;34.10;;
8480;SDS011;4277;51.354;6.740;2023-03-03T04:26:59;62.53;;;33.30;;
8480;SDS011;4277;51.354;6.740;2023-03-03T04:29:25;63.20;;;33.50;;
8480;SDS011;4277;51.354;6.740;2023-03-03T04:31:51;65.13;;;33.60;;
8480;SDS011;4277;51.354;6.740;2023-03-03T04:34:17;65.07;;;32.50;;
8480;SDS011;4277;51.354;6.740;2023-03-03T04:36:43;61.43;;;32.17;;
8480;SDS011;4277;51.354;6.740;2023-03-03T04:39:09;59.50;;;30.87;;
8480;SDS011;4277;51.354;6.740;2023-03-03T04:41:35;63.87;;;31.50;;
8480;SDS011;4277;51.354;6.740;2023-03-03T04:44:01;63.13;;;30.40;;
8480;SDS011;4277;51.354;6.740;2023-03-03T04:46:27;59.03;;;29.47;;
8480;SDS011;4277;51.354;6.740;2023-03-03T04:48:53;61.63;;;31.07;;
8480;SDS011;4277;51.354;6.740;2023-03-03T04:51:19;67.20;;;31.50;;
8480;SDS011;4277;51.354;6.740;2023-03-03T04:53:45;66.63;;;33.40;;
8480;SDS011;4277;51.354;6.740;2023-03-03T04:56:11;60.50;;;31.47;;
8480;SDS011;4277;51.354;6.740;2023-03-03T04:58:37;60.87;;;29.93;;
8480;SDS011;4277;51.354;6.740;2023-03-03T05:01:03;61.17;;;29.63;;
8480;SDS011;4277;51.354;6.740;2023-03-03T05:03:29;57.23;;;30.10;;
8480;SDS011;4277;51.354;6.740;2023-03-03T05:05:55;55.67;;;29.90;;
8480;SDS011;4277;51.354;6.740;2023-03-03T05:08:21;57.97;;;30.00;;
8480;SDS011;4277;51.354;6.740;2023-03-03T05:10:54;59.10;;;30.77;;
8480;SDS011;4277;51.354;6.740;2023-03-03T05:13:20;62.73;;;32.60;;
8480;SDS011;4277;51.354;6.740;2023-03-03T05:15:52;61.87;;;31.90;;
8480;SDS011;4277;51.354;6.740;2023-03-03T05:18:22;62.57;;;31.70;;
8480;SDS011;4277;51.354;6.740;2023-03-03T05:20:48;60.03;;;31.23;;
8480;SDS011;4277;51.354;6.740;2023-03-03T05:23:14;59.20;;;30.50;;
8480;SDS011;4277;51.354;6.740;2023-03-03T05:25:40;61.67;;;31.07;;
8480;SDS011;4277;51.354;6.740;2023-03-03T05:28:07;60.97;;;30.93;;
8480;SDS011;4277;51.354;6.740;2023-03-03T05:30:33;47.27;;;25.07;;
8480;SDS011;4277;51.354;6.740;2023-03-03T05:32:59;44.27;;;25.13;;
8480;SDS011;4277;51.354;6.740;2023-03-03T05:35:25;43.17;;;24.57;;
8480;SDS011;4277;51.354;6.740;2023-03-03T05:37:51;42.07;;;23.50;;
8480;SDS011;4277;51.354;6.740;2023-03-03T05:40:17;42.03;;;23.60;;
8480;SDS011;4277;51.354;6.740;2023-03-03T05:42:44;49.40;;;26.07;;
8480;SDS011;4277;51.354;6.740;2023-03-03T05:45:10;49.47;;;26.80;;
8480;SDS011;4277;51.354;6.740;2023-03-03T05:47:36;48.60;;;25.63;;
8480;SDS011;4277;51.354;6.740;2023-03-03T05:50:03;48.97;;;25.40;;
8480;SDS011;4277;51.354;6.740;2023-03-03T05:52:29;45.53;;;25.27;;
8480;SDS011;4277;51.354;6.740;2023-03-03T05:54:55;51.57;;;26.43;;
8480;SDS011;4277;51.354;6.740;2023-03-03T05:57:21;44.07;;;24.47;;
8480;SDS011;4277;51.354;6.740;2023-03-03T05:59:47;43.93;;;25.17;;
8480;SDS011;4277;51.354;6.740;2023-03-03T06:02:12;42.23;;;23.07;;
8480;SDS011;4277;51.354;6.740;2023-03-03T06:04:38;45.67;;;23.43;;
8480;SDS011;4277;51.354;6.740;2023-03-03T06:07:04;40.00;;;22.73;;
8480;SDS011;4277;51.354;6.740;2023-03-03T06:09:31;46.07;;;22.93;;
8480;SDS011;4277;51.354;6.740;2023-03-03T06:11:57;42.57;;;24.47;;
8480;SDS011;4277;51.354;6.740;2023-03-03T06:14:23;49.37;;;26.27;;
8480;SDS011;4277;51.354;6.740;2023-03-03T06:16:49;44.63;;;25.37;;
8480;SDS011;4277;51.354;6.740;2023-03-03T06:19:15;45.83;;;24.80;;
8480;SDS011;4277;51.354;6.740;2023-03-03T06:21:41;48.83;;;24.40;;
8480;SDS011;4277;51.354;6.740;2023-03-03T06:24:07;40.70;;;22.97;;
8480;SDS011;4277;51.354;6.740;2023-03-03T06:26:33;40.00;;;22.10;;
8480;SDS011;4277;51.354;6.740;2023-03-03T06:28:59;44.93;;;23.60;;
8480;SDS011;4277;51.354;6.740;2023-03-03T06:31:26;52.03;;;25.37;;
8480;SDS011;4277;51.354;6.740;2023-03-03T06:33:52;51.93;;;25.80;;
8480;SDS011;4277;51.354;6.740;2023-03-03T06:36:18;56.50;;;27.50;;
8480;SDS011;4277;51.354;6.740;2023-03-03T06:38:44;51.33;;;26.97;;
8480;SDS011;4277;51.354;6.740;2023-03-03T06:41:10;63.23;;;29.37;;
8480;SDS011;4277;51.354;6.740;2023-03-03T06:43:36;57.23;;;28.90;;
8480;SDS011;4277;51.354;6.740;2023-03-03T06:46:02;58.03;;;27.70;;
8480;SDS011;4277;51.354;6.740;2023-03-03T06:48:29;59.33;;;28.80;;
8480;SDS011;4277;51.354;6.740;2023-03-03T06:50:55;56.53;;;27.73;;
8480;SDS011;4277;51.354;6.740;2023-03-03T06:53:21;68.10;;;30.63;;
8480;SDS011;4277;51.354;6.740;2023-03-03T06:55:47;64.27;;;29.17;;
8480;SDS011;4277;51.354;6.740;2023-03-03T06:58:14;56.90;;;27.23;;
8480;SDS011;4277;51.354;6.740;2023-03-03T07:00:44;59.97;;;28.07;;
8480;SDS011;4277;51.354;6.740;2023-03-03T07:03:14;55.33;;;24.47;;
8480;SDS011;4277;51.354;6.740;2023-03-03T07:05:41;53.00;;;24.90;;
8480;SDS011;4277;51.354;6.740;2023-03-03T07:08:17;49.53;;;24.90;;
8480;SDS011;4277;51.354;6.740;2023-03-03T07:10:44;50.13;;;25.93;;
8480;SDS011;4277;51.354;6.740;2023-03-03T07:13:26;59.40;;;28.60;;
8480;SDS011;4277;51.354;6.740;2023-03-03T07:15:53;54.60;;;26.13;;
8480;SDS011;4277;51.354;6.740;2023-03-03T07:20:57;51.67;;;25.00;;
8480;SDS011;4277;51.354;6.740;2023-03-03T07:23:29;51.27;;;24.87;;
8480;SDS011;4277;51.354;6.740;2023-03-03T07:25:56;49.87;;;24.50;;
8480;SDS011;4277;51.354;6.740;2023-03-03T07:28:23;49.87;;;23.13;;
8480;SDS011;4277;51.354;6.740;2023-03-03T07:30:49;48.20;;;24.77;;
8480;SDS011;4277;51.354;6.740;2023-03-03T07:33:34;52.20;;;25.13;;
8480;SDS011;4277;51.354;6.740;2023-03-03T07:36:05;44.23;;;23.33;;
8480;SDS011;4277;51.354;6.740;2023-03-03T07:38:36;50.67;;;25.47;;
8480;SDS011;4277;51.354;6.740;2023-03-03T07:41:04;52.83;;;26.00;;
8480;SDS011;4277;51.354;6.740;2023-03-03T07:43:37;53.50;;;26.43;;
8480;SDS011;4277;51.354;6.740;2023-03-03T07:48:34;59.37;;;26.97;;
8480;SDS011;4277;51.354;6.740;2023-03-03T07:51:04;51.20;;;26.57;;
8480;SDS011;4277;51.354;6.740;2023-03-03T07:53:36;49.80;;;24.77;;
8480;SDS011;4277;51.354;6.740;2023-03-03T07:56:02;48.27;;;24.97;;
8480;SDS011;4277;51.354;6.740;2023-03-03T07:58:37;50.07;;;24.70;;
8480;SDS011;4277;51.354;6.740;2023-03-03T08:03:48;47.50;;;23.63;;
8480;SDS011;4277;51.354;6.740;2023-03-03T08:08:47;52.03;;;26.80;;
8480;SDS011;4277;51.354;6.740;2023-03-03T08:11:13;52.07;;;26.20;;
8480;SDS011;4277;51.354;6.740;2023-03-03T08:13:40;49.57;;;25.93;;
8480;SDS011;4277;51.354;6.740;2023-03-03T08:21:14;60.30;;;26.97;;
8480;SDS011;4277;51.354;6.740;2023-03-03T08:23:40;60.57;;;26.43;;
8480;SDS011;4277;51.354;6.740;2023-03-03T08:26:06;55.93;;;27.03;;
8480;SDS011;4277;51.354;6.740;2023-03-03T08:28:33;56.43;;;28.00;;
8480;SDS011;4277;51.354;6.740;2023-03-03T08:30:59;61.67;;;29.57;;
8480;SDS011;4277;51.354;6.740;2023-03-03T08:33:25;66.50;;;32.50;;
8480;SDS011;4277;51.354;6.740;2023-03-03T08:35:51;69.60;;;32.40;;
8480;SDS011;4277;51.354;6.740;2023-03-03T08:38:18;66.70;;;32.33;;
8480;SDS011;4277;51.354;6.740;2023-03-03T08:40:44;65.67;;;32.67;;
8480;SDS011;4277;51.354;6.740;2023-03-03T08:43:10;71.70;;;32.77;;
8480;SDS011;4277;51.354;6.740;2023-03-03T08:45:41;65.30;;;32.43;;
8480;SDS011;4277;51.354;6.740;2023-03-03T08:48:07;67.53;;;32.13;;
8480;SDS011;4277;51.354;6.740;2023-03-03T08:50:32;67.70;;;31.90;;
8480;SDS011;4277;51.354;6.740;2023-03-03T08:52:58;60.37;;;30.27;;
8480;SDS011;4277;51.354;6.740;2023-03-03T08:55:24;60.33;;;31.20;;
8480;SDS011;4277;51.354;6.740;2023-03-03T08:57:50;60.13;;;29.87;;
8480;SDS011;4277;51.354;6.740;2023-03-03T09:00:16;63.73;;;31.23;;
8480;SDS011;4277;51.354;6.740;2023-03-03T09:02:43;63.03;;;31.40;;
8480;SDS011;4277;51.354;6.740;2023-03-03T09:05:09;60.87;;;30.33;;
8480;SDS011;4277;51.354;6.740;2023-03-03T09:07:36;63.20;;;31.10;;
8480;SDS011;4277;51.354;6.740;2023-03-03T09:10:02;60.93;;;31.33;;
8480;SDS011;4277;51.354;6.740;2023-03-03T09:12:38;60.33;;;30.73;;
8480;SDS011;4277;51.354;6.740;2023-03-03T09:15:16;60.10;;;30.40;;
8480;SDS011;4277;51.354;6.740;2023-03-03T09:17:43;54.50;;;28.07;;
8480;SDS011;4277;51.354;6.740;2023-03-03T09:22:40;64.03;;;30.97;;
8480;SDS011;4277;51.354;6.740;2023-03-03T09:25:13;59.13;;;28.70;;
8480;SDS011;4277;51.354;6.740;2023-03-03T09:27:43;60.87;;;29.10;;
8480;SDS011;4277;51.354;6.740;2023-03-03T09:30:20;61.17;;;30.37;;
8480;SDS011;4277;51.354;6.740;2023-03-03T09:32:51;61.13;;;29.07;;
8480;SDS011;4277;51.354;6.740;2023-03-03T09:35:34;54.43;;;29.33;;
8480;SDS011;4277;51.354;6.740;2023-03-03T09:38:01;68.93;;;31.67;;
8480;SDS011;4277;51.354;6.740;2023-03-03T09:40:52;58.23;;;29.47;;
8480;SDS011;4277;51.354;6.740;2023-03-03T09:43:36;53.53;;;27.80;;
8480;SDS011;4277;51.354;6.740;2023-03-03T09:46:10;52.57;;;26.63;;
8480;SDS011;4277;51.354;6.740;2023-03-03T09:53:57;52.93;;;27.70;;
8480;SDS011;4277;51.354;6.740;2023-03-03T09:57:02;59.37;;;27.67;;
8480;SDS011;4277;51.354;6.740;2023-03-03T10:07:06;55.50;;;26.17;;
8480;SDS011;4277;51.354;6.740;2023-03-03T10:15:14;54.53;;;26.77;;
8480;SDS011;4277;51.354;6.740;2023-03-03T10:17:51;51.47;;;27.37;;
8480;SDS011;4277;51.354;6.740;2023-03-03T10:22:54;61.00;;;28.80;;
8480;SDS011;4277;51.354;6.740;2023-03-03T10:25:28;60.23;;;30.27;;
8480;SDS011;4277;51.354;6.740;2023-03-03T10:30:52;63.83;;;30.70;;
8480;SDS011;4277;51.354;6.740;2023-03-03T10:36:33;57.30;;;29.40;;
8480;SDS011;4277;51.354;6.740;2023-03-03T10:41:37;57.33;;;30.33;;
8480;SDS011;4277;51.354;6.740;2023-03-03T10:46:54;55.90;;;27.80;;
8480;SDS011;4277;51.354;6.740;2023-03-03T10:57:25;51.40;;;26.47;;
8480;SDS011;4277;51.354;6.740;2023-03-03T10:59:59;46.77;;;24.93;;
8480;SDS011;4277;51.354;6.740;2023-03-03T11:07:33;44.60;;;23.87;;
8480;SDS011;4277;51.354;6.740;2023-03-03T11:10:17;47.43;;;25.30;;
8480;SDS011;4277;51.354;6.740;2023-03-03T11:12:54;43.37;;;24.40;;
8480;SDS011;4277;51.354;6.740;2023-03-03T11:15:28;51.17;;;27.73;;
8480;SDS011;4277;51.354;6.740;2023-03-03T11:18:10;51.87;;;28.37;;
8480;SDS011;4277;51.354;6.740;2023-03-03T11:20:42;47.63;;;26.60;;
8480;SDS011;4277;51.354;6.740;2023-03-03T11:25:45;46.00;;;25.10;;
8480;SDS011;4277;51.354;6.740;2023-03-03T11:28:22;47.43;;;27.83;;
8480;SDS011;4277;51.354;6.740;2023-03-03T11:36:36;44.53;;;26.20;;
8480;SDS011;4277;51.354;6.740;2023-03-03T11:39:07;50.10;;;28.47;;
8480;SDS011;4277;51.354;6.740;2023-03-03T11:44:17;45.87;;;27.37;;
8480;SDS011;4277;51.354;6.740;2023-03-03T11:49:16;44.53;;;26.70;;
8480;SDS011;4277;51.354;6.740;2023-03-03T11:54:52;46.47;;;26.33;;
8480;SDS011;4277;51.354;6.740;2023-03-03T12:02:22;46.77;;;27.10;;
8480;SDS011;4277;51.354;6.740;2023-03-03T12:04:54;43.40;;;25.43;;
8480;SDS011;4277;51.354;6.740;2023-03-03T12:12:32;43.07;;;24.17;;
8480;SDS011;4277;51.354;6.740;2023-03-03T12:17:49;49.07;;;25.93;;
8480;SDS011;4277;51.354;6.740;2023-03-03T12:20:17;39.80;;;23.47;;
8480;SDS011;4277;51.354;6.740;2023-03-03T12:25:21;44.13;;;24.40;;
8480;SDS011;4277;51.354;6.740;2023-03-03T12:30:19;45.37;;;25.07;;
8480;SDS011;4277;51.354;6.740;2023-03-03T12:38:20;42.20;;;24.60;;
8480;SDS011;4277;51.354;6.740;2023-03-03T12:40:44;46.13;;;25.70;;
8480;SDS011;4277;51.354;6.740;2023-03-03T12:43:33;44.50;;;25.47;;
8480;SDS011;4277;51.354;6.740;2023-03-03T12:46:10;45.07;;;25.03;;
8480;SDS011;4277;51.354;6.740;2023-03-03T12:48:41;43.63;;;24.80;;
8480;SDS011;4277;51.354;6.740;2023-03-03T12:56:11;43.07;;;24.20;;
8480;SDS011;4277;51.354;6.740;2023-03-03T12:58:50;38.33;;;24.23;;
8480;SDS011;4277;51.354;6.740;2023-03-03T13:06:36;40.60;;;24.67;;
8480;SDS011;4277;51.354;6.740;2023-03-03T13:14:30;45.60;;;27.43;;
8480;SDS011;4277;51.354;6.740;2023-03-03T13:17:02;43.80;;;27.13;;
8480;SDS011;4277;51.354;6.740;2023-03-03T13:19:32;48.27;;;27.87;;
8480;SDS011;4277;51.354;6.740;2023-03-03T13:22:05;45.70;;;28.03;;
8480;SDS011;4277;51.354;6.740;2023-03-03T13:24:38;40.97;;;26.47;;
8480;SDS011;4277;51.354;6.740;2023-03-03T13:27:08;43.60;;;27.57;;
8480;SDS011;4277;51.354;6.740;2023-03-03T13:29:37;41.57;;;27.17;;
8480;SDS011;4277;51.354;6.740;2023-03-03T13:32:08;41.90;;;25.73;;
8480;SDS011;4277;51.354;6.740;2023-03-03T13:34:42;42.00;;;25.53;;
8480;SDS011;4277;51.354;6.740;2023-03-03T13:37:14;43.30;;;25.07;;
8480;SDS011;4277;51.354;6.740;2023-03-03T13:42:27;41.30;;;25.57;;
8480;SDS011;4277;51.354;6.740;2023-03-03T13:44:56;42.83;;;26.13;;
8480;SDS011;4277;51.354;6.740;2023-03-03T13:52:32;39.27;;;25.13;;
8480;SDS011;4277;51.354;6.740;2023-03-03T13:55:05;39.53;;;24.73;;
8480;SDS011;4277;51.354;6.740;2023-03-03T14:00:15;40.03;;;25.50;;
8480;SDS011;4277;51.354;6.740;2023-03-03T14:07:59;34.97;;;22.57;;
8480;SDS011;4277;51.354;6.740;2023-03-03T14:13:12;38.57;;;23.23;;
8480;SDS011;4277;51.354;6.740;2023-03-03T14:16:01;37.93;;;23.67;;
8480;SDS011;4277;51.354;6.740;2023-03-03T14:18:30;39.50;;;24.43;;
8480;SDS011;4277;51.354;6.740;2023-03-03T14:21:01;35.30;;;22.87;;
8480;SDS011;4277;51.354;6.740;2023-03-03T14:26:14;36.10;;;23.03;;
8480;SDS011;4277;51.354;6.740;2023-03-03T14:28:41;34.10;;;21.33;;
8480;SDS011;4277;51.354;6.740;2023-03-03T14:33:54;38.30;;;22.40;;
8480;SDS011;4277;51.354;6.740;2023-03-03T14:36:26;30.27;;;20.73;;
8480;SDS011;4277;51.354;6.740;2023-03-03T14:38:52;29.57;;;19.97;;
8480;SDS011;4277;51.354;6.740;2023-03-03T14:41:19;28.73;;;19.90;;
8480;SDS011;4277;51.354;6.740;2023-03-03T14:43:54;30.17;;;20.67;;
8480;SDS011;4277;51.354;6.740;2023-03-03T14:48:55;33.20;;;21.90;;
8480;SDS011;4277;51.354;6.740;2023-03-03T14:54:07;32.00;;;21.00;;
8480;SDS011;4277;51.354;6.740;2023-03-03T14:56:34;32.93;;;22.10;;
8480;SDS011;4277;51.354;6.740;2023-03-03T14:59:17;29.30;;;20.60;;
8480;SDS011;4277;51.354;6.740;2023-03-03T15:01:44;29.47;;;20.03;;
8480;SDS011;4277;51.354;6.740;2023-03-03T15:11:49;29.77;;;19.93;;
8480;SDS011;4277;51.354;6.740;2023-03-03T15:14:15;29.70;;;19.93;;
8480;SDS011;4277;51.354;6.740;2023-03-03T15:16:43;29.60;;;19.73;;
8480;SDS011;4277;51.354;6.740;2023-03-03T15:19:13;27.20;;;17.60;;
8480;SDS011;4277;51.354;6.740;2023-03-03T15:21:43;26.07;;;17.10;;
8480;SDS011;4277;51.354;6.740;2023-03-03T15:24:18;23.30;;;16.87;;
8480;SDS011;4277;51.354;6.740;2023-03-03T15:26:48;26.53;;;16.63;;
8480;SDS011;4277;51.354;6.740;2023-03-03T15:34:29;26.27;;;17.13;;
8480;SDS011;4277;51.354;6.740;2023-03-03T15:39:44;27.40;;;17.10;;
8480;SDS011;4277;51.354;6.740;2023-03-03T15:43:01;29.20;;;17.10;;
8480;SDS011;4277;51.354;6.740;2023-03-03T15:53:11;28.93;;;17.67;;
8480;SDS011;4277;51.354;6.740;2023-03-03T16:01:28;29.27;;;17.10;;
8480;SDS011;4277;51.354;6.740;2023-03-03T16:03:56;25.80;;;16.63;;
8480;SDS011;4277;51.354;6.740;2023-03-03T16:06:37;30.47;;;17.27;;
8480;SDS011;4277;51.354;6.740;2023-03-03T16:11:46;25.53;;;15.93;;
8480;SDS011;4277;51.354;6.740;2023-03-03T16:16:53;28.50;;;15.90;;
8480;SDS011;4277;51.354;6.740;2023-03-03T16:19:24;25.60;;;14.90;;
8480;SDS011;4277;51.354;6.740;2023-03-03T16:27:05;25.93;;;15.67;;
8480;SDS011;4277;51.354;6.740;2023-03-03T16:32:23;33.40;;;17.90;;
8480;SDS011;4277;51.354;6.740;2023-03-03T16:34:56;26.43;;;15.80;;
8480;SDS011;4277;51.354;6.740;2023-03-03T16:37:28;29.83;;;16.00;;
8480;SDS011;4277;51.354;6.740;2023-03-03T16:42:25;31.53;;;17.37;;
8480;SDS011;4277;51.354;6.740;2023-03-03T16:53:11;28.47;;;16.10;;
8480;SDS011;4277;51.354;6.740;2023-03-03T16:55:49;28.90;;;14.30;;
8480;SDS011;4277;51.354;6.740;2023-03-03T16:58:24;31.83;;;15.17;;
8480;SDS011;4277;51.354;6.740;2023-03-03T17:00:56;26.07;;;14.67;;
8480;SDS011;4277;51.354;6.740;2023-03-03T17:06:26;27.13;;;15.10;;
8480;SDS011;4277;51.354;6.740;2023-03-03T17:08:59;25.53;;;14.07;;
8480;SDS011;4277;51.354;6.740;2023-03-03T17:11:31;31.10;;;14.83;;
8480;SDS011;4277;51.354;6.740;2023-03-03T17:14:05;25.57;;;13.37;;
8480;SDS011;4277;51.354;6.740;2023-03-03T17:16:45;26.07;;;14.03;;
8480;SDS011;4277;51.354;6.740;2023-03-03T17:22:11;29.47;;;13.63;;
8480;SDS011;4277;51.354;6.740;2023-03-03T17:30:01;20.53;;;12.13;;
8480;SDS011;4277;51.354;6.740;2023-03-03T17:32:37;20.87;;;11.80;;
8480;SDS011;4277;51.354;6.740;2023-03-03T17:37:57;21.00;;;12.53;;
8480;SDS011;4277;51.354;6.740;2023-03-03T17:40:46;22.90;;;12.77;;
8480;SDS011;4277;51.354;6.740;2023-03-03T17:43:16;25.87;;;12.57;;
8480;SDS011;4277;51.354;6.740;2023-03-03T17:45:45;21.10;;;12.50;;
8480;SDS011;4277;51.354;6.740;2023-03-03T18:03:57;18.90;;;11.50;;
8480;SDS011;4277;51.354;6.740;2023-03-03T18:11:35;24.00;;;13.95;;
8480;SDS011;4277;51.354;6.740;2023-03-03T18:14:14;29.07;;;14.53;;
8480;SDS011;4277;51.354;6.740;2023-03-03T18:22:16;25.57;;;14.87;;
8480;SDS011;4277;51.354;6.740;2023-03-03T18:35:34;30.17;;;14.50;;
8480;SDS011;4277;51.354;6.740;2023-03-03T18:40:50;29.17;;;15.37;;
8480;SDS011;4277;51.354;6.740;2023-03-03T18:46:01;32.33;;;15.73;;
8480;SDS011;4277;51.354;6.740;2023-03-03T18:48:47;29.00;;;15.53;;
8480;SDS011;4277;51.354;6.740;2023-03-03T18:57:19;30.07;;;15.30;;
8480;SDS011;4277;51.354;6.740;2023-03-03T19:04:39;27.87;;;15.13;;
8480;SDS011;4277;51.354;6.740;2023-03-03T19:09:49;24.40;;;15.33;;
8480;SDS011;4277;51.354;6.740;2023-03-03T19:12:40;25.20;;;15.73;;
8480;SDS011;4277;51.354;6.740;2023-03-03T19:15:36;28.13;;;16.50;;
8480;SDS011;4277;51.354;6.740;2023-03-03T19:17:52;24.10;;;14.93;;
8480;SDS011;4277;51.354;6.740;2023-03-03T19:20:20;32.60;;;16.77;;
8480;SDS011;4277;51.354;6.740;2023-03-03T19:22:48;28.43;;;18.10;;
8480;SDS011;4277;51.354;6.740;2023-03-03T19:36:07;31.07;;;17.43;;
8480;SDS011;4277;51.354;6.740;2023-03-03T19:46:42;29.47;;;18.00;;
8480;SDS011;4277;51.354;6.740;2023-03-03T19:49:15;30.87;;;18.73;;
8480;SDS011;4277;51.354;6.740;2023-03-03T19:52:02;32.90;;;19.27;;
8480;SDS011;4277;51.354;6.740;2023-03-03T19:54:43;34.97;;;17.93;;
8480;SDS011;4277;51.354;6.740;2023-03-03T19:57:16;30.27;;;18.80;;
8480;SDS011;4277;51.354;6.740;2023-03-03T20:00:19;40.03;;;23.40;;
8480;SDS011;4277;51.354;6.740;2023-03-03T20:10:12;31.97;;;20.13;;
8480;SDS011;4277;51.354;6.740;2023-03-03T20:13:34;29.73;;;18.33;;
8480;SDS011;4277;51.354;6.740;2023-03-03T20:23:33;34.77;;;20.57;;